createdAt,value
2022-09-01T00:00:02.636Z,89.77
2022-09-01T00:02:30.103Z,89.03
2022-09-01T00:04:59.077Z,90.21
2022-09-01T00:07:30.040Z,89.11
2022-09-01T00:09:56.798Z,89.75
2022-09-01T00:12:25.624Z,91.97
2022-09-01T00:14:52.399Z,93.45
2022-09-01T00:17:18.846Z,92.43
2022-09-01T00:19:45.307Z,93.00
2022-09-01T00:22:11.920Z,91.50
2022-09-01T00:24:38.546Z,92.01
2022-09-01T00:27:05.064Z,92.09
2022-09-01T00:29:31.527Z,91.82
2022-09-01T00:31:58.190Z,91.65
2022-09-01T00:34:24.822Z,94.65
2022-09-01T00:36:51.766Z,95.20
2022-09-01T00:39:18.344Z,95.96
2022-09-01T00:41:45.317Z,96.16
2022-09-01T00:44:14.771Z,94.71
2022-09-01T00:46:55.477Z,95.53
2022-09-01T00:49:29.761Z,98.48
2022-09-01T00:52:05.033Z,99.25
2022-09-01T00:54:35.583Z,100.00
2022-09-01T00:57:03.566Z,100.00
2022-09-01T00:59:30.717Z,100.00
2022-09-01T01:01:58.108Z,100.00
2022-09-01T01:04:25.602Z,100.00
2022-09-01T01:07:01.596Z,100.00
2022-09-01T01:09:36.511Z,100.00
2022-09-01T01:12:05.261Z,100.00
2022-09-01T01:15:37.868Z,99.87
2022-09-01T01:18:04.576Z,99.39
2022-09-01T01:20:52.174Z,99.92
2022-09-01T01:23:26.242Z,100.00
2022-09-01T01:25:58.542Z,99.87
2022-09-01T01:28:31.199Z,98.75
2022-09-01T01:31:01.327Z,98.62
2022-09-01T01:33:43.036Z,99.48
2022-09-01T01:36:35.808Z,99.32
2022-09-01T01:39:08.517Z,99.59
2022-09-01T01:41:36.290Z,99.10
2022-09-01T01:44:05.228Z,100.00
2022-09-01T01:46:33.704Z,99.90
2022-09-01T01:49:20.098Z,99.71
2022-09-01T01:51:49.048Z,99.95
2022-09-01T01:54:19.730Z,99.99
2022-09-01T01:56:46.138Z,100.00
2022-09-01T01:59:14.950Z,100.00
2022-09-01T02:01:43.019Z,100.00
2022-09-01T02:04:11.113Z,100.00
2022-09-01T02:06:41.299Z,98.37
2022-09-01T02:09:08.011Z,98.61
2022-09-01T02:11:37.904Z,100.00
2022-09-01T02:14:06.701Z,100.00
2022-09-01T02:16:34.429Z,100.00
2022-09-01T02:19:02.296Z,100.00
2022-09-01T02:21:29.258Z,100.00
2022-09-01T02:24:02.363Z,100.00
2022-09-01T02:26:32.279Z,100.00
2022-09-01T02:29:04.716Z,100.00
2022-09-01T02:31:35.343Z,100.00
2022-09-01T02:34:02.452Z,98.35
2022-09-01T02:36:32.886Z,98.19
2022-09-01T02:38:59.453Z,100.00
2022-09-01T02:41:28.961Z,100.00
2022-09-01T02:43:55.670Z,100.00
2022-09-01T02:46:24.555Z,100.00
2022-09-01T02:48:51.518Z,100.00
2022-09-01T02:51:20.911Z,100.00
2022-09-01T02:53:52.170Z,100.00
2022-09-01T02:56:22.765Z,100.00
2022-09-01T02:58:52.249Z,100.00
2022-09-01T03:01:25.250Z,100.00
2022-09-01T03:03:54.989Z,100.00
2022-09-01T03:06:24.584Z,100.00
2022-09-01T03:08:56.569Z,100.00
2022-09-01T03:11:24.444Z,100.00
2022-09-01T03:13:51.355Z,100.00
2022-09-01T03:16:19.083Z,100.00
2022-09-01T03:18:45.637Z,100.00
2022-09-01T03:21:16.133Z,100.00
2022-09-01T03:23:44.856Z,100.00
2022-09-01T03:26:50.292Z,100.00
2022-09-01T03:29:18.202Z,100.00
2022-09-01T03:31:44.925Z,100.00
2022-09-01T03:34:12.369Z,100.00
2022-09-01T03:36:39.984Z,100.00
2022-09-01T03:39:14.590Z,100.00
2022-09-01T03:41:43.621Z,100.00
2022-09-01T03:44:14.157Z,100.00
2022-09-01T03:46:40.631Z,100.00
2022-09-01T03:49:08.045Z,100.00
2022-09-01T03:51:35.113Z,100.00
2022-09-01T03:54:01.562Z,100.00
2022-09-01T03:57:00.729Z,100.00
2022-09-01T03:59:29.942Z,100.00
2022-09-01T04:01:57.484Z,100.00
2022-09-01T04:04:24.606Z,100.00
2022-09-01T04:06:51.033Z,100.00
2022-09-01T04:09:17.593Z,100.00
2022-09-01T04:11:46.863Z,100.00
2022-09-01T04:14:13.479Z,100.00
2022-09-01T04:16:58.649Z,100.00
2022-09-01T04:19:26.436Z,100.00
2022-09-01T04:21:59.978Z,100.00
2022-09-01T04:24:28.236Z,100.00
2022-09-01T04:26:56.221Z,100.00
2022-09-01T04:29:29.156Z,100.00
2022-09-01T04:35:40.170Z,100.00
2022-09-01T04:38:08.410Z,100.00
2022-09-01T04:40:41.917Z,100.00
2022-09-01T04:43:09.197Z,100.00
2022-09-01T04:49:26.977Z,100.00
2022-09-01T04:51:54.421Z,100.00
2022-09-01T04:58:10.213Z,100.00
2022-09-01T05:04:28.796Z,100.00
2022-09-01T05:06:59.656Z,100.00
2022-09-01T05:09:31.629Z,100.00
2022-09-01T05:12:01.641Z,100.00
2022-09-01T05:14:28.807Z,100.00
2022-09-01T05:16:58.968Z,100.00
2022-09-01T05:23:13.319Z,100.00
2022-09-01T05:25:43.915Z,100.00
2022-09-01T05:28:13.085Z,100.00
2022-09-01T05:30:40.978Z,100.00
2022-09-01T05:33:12.441Z,100.00
2022-09-01T05:35:43.494Z,100.00
2022-09-01T05:38:15.584Z,100.00
2022-09-01T05:40:43.746Z,100.00
2022-09-01T05:43:12.512Z,100.00
2022-09-01T05:46:03.337Z,100.00
2022-09-01T05:48:31.585Z,100.00
2022-09-01T05:50:59.861Z,100.00
2022-09-01T05:53:31.105Z,100.00
2022-09-01T05:55:58.427Z,100.00
2022-09-01T05:58:26.840Z,100.00
2022-09-01T06:00:55.749Z,100.00
2022-09-01T06:03:22.983Z,100.00
2022-09-01T06:09:41.534Z,100.00
2022-09-01T06:12:17.527Z,100.00
2022-09-01T06:14:45.342Z,100.00
2022-09-01T06:17:11.892Z,100.00
2022-09-01T06:19:39.993Z,100.00
2022-09-01T06:22:06.470Z,100.00
2022-09-01T06:24:33.539Z,100.00
2022-09-01T06:26:59.988Z,100.00
2022-09-01T06:29:26.412Z,100.00
2022-09-01T06:31:52.955Z,100.00
2022-09-01T06:34:19.672Z,100.00
2022-09-01T06:36:48.503Z,100.00
2022-09-01T06:39:20.007Z,99.45
2022-09-01T06:41:52.747Z,99.33
2022-09-01T06:44:22.980Z,94.80
2022-09-01T06:46:53.117Z,93.21
2022-09-01T06:49:21.529Z,92.53
2022-09-01T06:51:49.671Z,91.58
2022-09-01T06:54:19.058Z,93.67
2022-09-01T06:56:51.482Z,93.61
2022-09-01T06:59:19.965Z,92.48
2022-09-01T07:01:48.940Z,92.63
2022-09-01T07:04:21.423Z,91.79
2022-09-01T07:07:00.139Z,89.96
2022-09-01T07:09:38.605Z,87.89
2022-09-01T07:12:27.742Z,85.77
2022-09-01T07:17:42.564Z,85.25
2022-09-01T07:20:26.811Z,83.01
2022-09-01T07:23:10.486Z,84.40
2022-09-01T07:26:01.069Z,83.10
2022-09-01T07:28:36.179Z,83.75
2022-09-01T07:33:55.789Z,81.13
2022-09-01T07:45:28.358Z,78.41
2022-09-01T07:47:55.904Z,78.76
2022-09-01T07:50:39.903Z,74.34
2022-09-01T07:53:12.470Z,73.72
2022-09-01T07:55:44.123Z,73.85
2022-09-01T07:58:11.860Z,72.97
2022-09-01T08:00:46.071Z,71.34
2022-09-01T08:03:13.967Z,68.91
2022-09-01T08:05:40.978Z,68.74
2022-09-01T08:08:18.563Z,69.42
2022-09-01T08:10:49.167Z,69.74
2022-09-01T08:13:16.760Z,67.68
2022-09-01T08:18:48.200Z,67.30
2022-09-01T08:21:15.536Z,64.34
2022-09-01T08:23:42.266Z,64.60
2022-09-01T08:26:11.939Z,64.81
2022-09-01T08:28:39.624Z,64.38
2022-09-01T08:31:11.197Z,65.08
2022-09-01T08:33:39.424Z,64.89
2022-09-01T08:36:08.070Z,62.04
2022-09-01T08:38:34.731Z,62.23
2022-09-01T08:41:03.278Z,61.71
2022-09-01T08:43:58.274Z,60.64
2022-09-01T08:46:28.426Z,60.87
2022-09-01T08:52:08.847Z,62.33
2022-09-01T08:54:49.765Z,59.09
2022-09-01T08:57:20.607Z,58.36
2022-09-01T08:59:47.591Z,57.50
2022-09-01T09:02:25.289Z,58.69
2022-09-01T09:05:02.038Z,58.50
2022-09-01T09:08:07.262Z,57.74
2022-09-01T09:10:49.219Z,57.45
2022-09-01T09:13:39.794Z,56.41
2022-09-01T09:16:17.692Z,56.67
2022-09-01T09:19:00.623Z,55.42
2022-09-01T09:21:33.222Z,55.30
2022-09-01T09:24:10.553Z,55.46
2022-09-01T09:26:44.800Z,55.36
2022-09-01T09:29:11.578Z,54.48
2022-09-01T09:32:22.419Z,55.63
2022-09-01T09:34:50.489Z,54.96
2022-09-01T09:37:24.730Z,54.32
2022-09-01T09:40:12.051Z,54.90
2022-09-01T09:42:40.580Z,53.16
2022-09-01T09:45:21.583Z,53.63
2022-09-01T09:47:48.495Z,54.38
2022-09-01T09:50:22.913Z,54.09
2022-09-01T09:52:51.124Z,53.10
2022-09-01T09:55:26.793Z,52.66
2022-09-01T09:57:56.613Z,52.31
2022-09-01T10:00:29.435Z,51.70
2022-09-01T10:03:12.404Z,51.89
2022-09-01T10:05:44.136Z,52.29
2022-09-01T10:08:15.718Z,51.69
2022-09-01T10:10:44.118Z,52.04
2022-09-01T10:13:16.598Z,52.34
2022-09-01T10:15:51.245Z,51.01
2022-09-01T10:18:29.382Z,51.25
2022-09-01T10:21:08.150Z,52.07
2022-09-01T10:23:37.656Z,49.96
2022-09-01T10:26:14.241Z,49.67
2022-09-01T10:28:52.926Z,50.45
2022-09-01T10:31:20.431Z,50.43
2022-09-01T10:33:47.765Z,48.09
2022-09-01T10:36:15.444Z,47.84
2022-09-01T10:38:46.867Z,48.39
2022-09-01T10:41:48.169Z,49.87
2022-09-01T10:44:21.095Z,49.51
2022-09-01T10:47:28.111Z,49.16
2022-09-01T10:49:55.985Z,49.38
2022-09-01T10:52:58.869Z,49.12
2022-09-01T10:55:32.868Z,47.64
2022-09-01T10:59:29.850Z,48.41
2022-09-01T11:03:51.553Z,47.28
2022-09-01T11:09:48.649Z,46.71
2022-09-01T11:12:15.137Z,46.38
2022-09-01T11:14:52.153Z,46.93
2022-09-01T11:17:27.726Z,46.31
2022-09-01T11:20:02.106Z,46.00
2022-09-01T11:22:32.580Z,45.47
2022-09-01T11:25:12.826Z,45.10
2022-09-01T11:27:48.610Z,45.33
2022-09-01T11:30:21.033Z,45.53
2022-09-01T11:32:50.782Z,44.31
2022-09-01T11:35:21.636Z,43.83
2022-09-01T11:37:49.926Z,43.62
2022-09-01T11:40:29.745Z,42.37
2022-09-01T11:43:04.457Z,41.40
2022-09-01T11:45:32.984Z,41.30
2022-09-01T11:48:08.172Z,39.74
2022-09-01T11:50:37.873Z,38.79
2022-09-01T11:53:08.027Z,39.78
2022-09-01T11:55:34.454Z,39.36
2022-09-01T11:58:01.886Z,39.84
2022-09-01T12:00:33.974Z,38.60
2022-09-01T12:03:00.646Z,37.75
2022-09-01T12:05:34.117Z,38.90
2022-09-01T12:08:03.552Z,38.85
2022-09-01T12:10:36.521Z,38.39
2022-09-01T12:13:22.611Z,38.03
2022-09-01T12:16:16.471Z,38.71
2022-09-01T12:18:51.354Z,38.48
2022-09-01T12:21:22.913Z,37.96
2022-09-01T12:23:49.384Z,36.73
2022-09-01T12:26:19.714Z,36.42
2022-09-01T12:28:49.602Z,35.37
2022-09-01T12:31:27.312Z,35.00
2022-09-01T12:33:56.422Z,35.62
2022-09-01T12:36:26.808Z,35.09
2022-09-01T12:38:55.338Z,34.26
2022-09-01T12:41:31.246Z,34.09
2022-09-01T12:43:57.699Z,33.45
2022-09-01T12:46:41.416Z,33.99
2022-09-01T12:49:19.652Z,33.96
2022-09-01T12:51:48.466Z,32.57
2022-09-01T12:54:15.321Z,33.09
2022-09-01T12:56:48.409Z,32.73
2022-09-01T12:59:36.055Z,32.10
2022-09-01T13:02:26.629Z,32.19
2022-09-01T13:04:53.136Z,31.74
2022-09-01T13:07:19.583Z,31.82
2022-09-01T13:09:46.138Z,32.04
2022-09-01T13:12:21.092Z,33.03
2022-09-01T13:14:47.810Z,31.04
2022-09-01T13:17:14.907Z,31.82
2022-09-01T13:19:41.695Z,32.06
2022-09-01T13:22:08.195Z,30.41
2022-09-01T13:24:34.657Z,30.97
2022-09-01T13:29:48.474Z,29.84
2022-09-01T13:32:33.081Z,30.47
2022-09-01T13:34:59.702Z,30.31
2022-09-01T13:37:26.174Z,30.28
2022-09-01T13:39:52.703Z,30.16
2022-09-01T13:42:19.227Z,29.29
2022-09-01T13:44:49.793Z,29.59
2022-09-01T13:47:34.257Z,29.31
2022-09-01T13:54:00.357Z,28.14
2022-09-01T13:56:26.807Z,28.53
2022-09-01T13:58:53.316Z,28.15
2022-09-01T14:01:19.861Z,28.37
2022-09-01T14:03:50.074Z,27.98
2022-09-01T14:06:18.489Z,27.91
2022-09-01T14:08:44.989Z,27.65
2022-09-01T14:11:20.029Z,28.28
2022-09-01T14:13:47.091Z,27.99
2022-09-01T14:16:14.910Z,27.88
2022-09-01T14:18:42.830Z,27.76
2022-09-01T14:21:14.669Z,27.77
2022-09-01T14:23:46.125Z,28.58
2022-09-01T14:26:15.084Z,28.34
2022-09-01T14:28:45.656Z,28.22
2022-09-01T14:31:13.628Z,27.96
2022-09-01T14:33:40.796Z,27.73
2022-09-01T14:36:13.203Z,27.32
2022-09-01T14:38:41.396Z,28.77
2022-09-01T14:41:07.847Z,28.52
2022-09-01T14:43:34.293Z,27.54
2022-09-01T14:46:10.114Z,27.46
2022-09-01T14:48:38.399Z,28.69
2022-09-01T14:51:05.886Z,30.00
2022-09-01T14:53:32.718Z,30.73
2022-09-01T14:56:00.339Z,31.94
2022-09-01T14:58:28.456Z,33.07
2022-09-01T15:01:00.465Z,32.57
2022-09-01T15:07:10.632Z,31.99
2022-09-01T15:09:37.699Z,31.01
2022-09-01T15:12:04.513Z,29.81
2022-09-01T15:14:32.955Z,28.99
2022-09-01T15:16:59.413Z,29.52
2022-09-01T15:19:25.975Z,29.72
2022-09-01T15:21:52.645Z,31.00
2022-09-01T15:24:19.300Z,31.89
2022-09-01T15:26:47.307Z,32.37
2022-09-01T15:29:15.185Z,33.40
2022-09-01T15:31:43.277Z,34.01
2022-09-01T15:34:10.752Z,34.84
2022-09-01T15:36:42.295Z,34.82
2022-09-01T15:39:09.195Z,34.95
2022-09-01T15:41:36.644Z,34.32
2022-09-01T15:44:07.323Z,34.23
2022-09-01T15:46:35.028Z,32.79
2022-09-01T15:49:03.715Z,33.31
2022-09-01T15:51:42.476Z,31.25
2022-09-01T15:54:15.291Z,31.46
2022-09-01T15:56:42.925Z,29.87
2022-09-01T15:59:10.630Z,30.36
2022-09-01T16:01:39.717Z,31.05
2022-09-01T16:04:08.211Z,33.28
2022-09-01T16:06:35.239Z,32.86
2022-09-01T16:09:02.246Z,33.28
2022-09-01T16:11:28.841Z,32.93
2022-09-01T16:13:57.008Z,33.77
2022-09-01T16:16:40.518Z,33.48
2022-09-01T16:19:33.123Z,33.95
2022-09-01T16:22:08.523Z,33.69
2022-09-01T16:24:42.547Z,33.45
2022-09-01T16:27:14.188Z,33.36
2022-09-01T16:29:45.572Z,33.88
2022-09-01T16:32:12.516Z,33.81
2022-09-01T16:34:46.644Z,35.04
2022-09-01T16:37:22.190Z,35.67
2022-09-01T16:39:51.790Z,35.94
2022-09-01T16:42:38.344Z,37.14
2022-09-01T16:45:18.458Z,37.65
2022-09-01T16:47:59.021Z,37.32
2022-09-01T16:54:38.759Z,35.51
2022-09-01T16:57:20.457Z,35.88
2022-09-01T16:59:55.643Z,35.69
2022-09-01T17:02:44.054Z,34.91
2022-09-01T17:05:23.985Z,35.93
2022-09-01T17:07:54.585Z,36.90
2022-09-01T17:10:30.248Z,38.32
2022-09-01T17:12:57.770Z,39.53
2022-09-01T17:15:39.368Z,39.05
2022-09-01T17:18:22.244Z,41.25
2022-09-01T17:20:54.964Z,41.43
2022-09-01T17:23:30.302Z,41.45
2022-09-01T17:26:01.608Z,41.40
2022-09-01T17:28:39.153Z,41.72
2022-09-01T17:31:10.337Z,42.12
2022-09-01T17:33:48.444Z,42.17
2022-09-01T17:36:18.682Z,43.44
2022-09-01T17:39:01.055Z,43.97
2022-09-01T17:41:52.780Z,43.98
2022-09-01T17:44:22.185Z,44.22
2022-09-01T17:47:20.382Z,43.64
2022-09-01T17:50:02.818Z,44.69
2022-09-01T17:52:52.380Z,44.25
2022-09-01T17:55:57.007Z,44.48
2022-09-01T17:58:49.123Z,43.72
2022-09-01T18:01:28.183Z,43.74
2022-09-01T18:04:39.567Z,44.51
2022-09-01T18:07:36.387Z,44.63
2022-09-01T18:10:06.224Z,44.51
2022-09-01T18:12:38.077Z,44.50
2022-09-01T18:15:10.374Z,44.52
2022-09-01T18:20:26.661Z,45.79
2022-09-01T18:23:19.271Z,45.98
2022-09-01T18:25:57.530Z,46.70
2022-09-01T18:28:24.023Z,46.42
2022-09-01T18:30:56.610Z,47.27
2022-09-01T18:33:27.942Z,47.77
2022-09-01T18:36:06.399Z,46.64
2022-09-01T18:38:40.409Z,47.52
2022-09-01T18:41:42.638Z,47.88
2022-09-01T18:44:27.593Z,48.46
2022-09-01T18:47:08.197Z,49.28
2022-09-01T18:49:50.303Z,48.49
2022-09-01T18:52:48.475Z,48.81
2022-09-01T18:55:26.172Z,49.67
2022-09-01T18:57:55.499Z,48.67
2022-09-01T19:00:30.549Z,48.82
2022-09-01T19:03:04.564Z,49.10
2022-09-01T19:05:43.346Z,49.01
2022-09-01T19:08:36.950Z,48.54
2022-09-01T19:11:13.519Z,48.73
2022-09-01T19:14:13.338Z,49.42
2022-09-01T19:16:52.454Z,50.39
2022-09-01T19:19:34.025Z,50.49
2022-09-01T19:22:01.461Z,51.29
2022-09-01T19:25:20.687Z,51.49
2022-09-01T19:28:13.630Z,51.89
2022-09-01T19:31:25.300Z,52.48
2022-09-01T19:33:58.640Z,53.18
2022-09-01T19:36:34.211Z,52.65
2022-09-01T19:39:01.246Z,52.31
2022-09-01T19:41:35.455Z,52.93
2022-09-01T19:44:08.431Z,53.69
2022-09-01T19:46:41.386Z,53.60
2022-09-01T19:49:34.008Z,53.48
2022-09-01T19:52:11.056Z,54.10
2022-09-01T19:54:46.642Z,54.23
2022-09-01T19:57:50.471Z,54.17
2022-09-01T20:00:41.950Z,55.21
2022-09-01T20:03:13.221Z,55.27
2022-09-01T20:05:42.982Z,55.01
2022-09-01T20:08:37.827Z,55.24
2022-09-01T20:11:10.698Z,55.77
2022-09-01T20:13:44.000Z,56.19
2022-09-01T20:16:35.883Z,56.83
2022-09-01T20:19:16.497Z,56.66
2022-09-01T20:21:45.712Z,56.02
2022-09-01T20:24:39.727Z,56.97
2022-09-01T20:27:22.726Z,57.49
2022-09-01T20:30:04.535Z,57.72
2022-09-01T20:32:53.143Z,58.20
2022-09-01T20:35:36.293Z,59.12
2022-09-01T20:38:34.149Z,59.61
2022-09-01T20:41:09.116Z,59.32
2022-09-01T20:43:40.375Z,59.47
2022-09-01T20:46:07.426Z,59.59
2022-09-01T20:48:40.073Z,59.27
2022-09-01T20:51:15.221Z,58.77
2022-09-01T20:54:06.057Z,59.24
2022-09-01T20:56:40.583Z,59.08
2022-09-01T20:59:18.115Z,59.89
2022-09-01T21:02:38.604Z,61.95
2022-09-01T21:05:45.489Z,62.04
2022-09-01T21:08:18.112Z,62.65
2022-09-01T21:10:52.037Z,62.41
2022-09-01T21:13:46.072Z,61.67
2022-09-01T21:16:34.028Z,60.67
2022-09-01T21:19:06.236Z,61.02
2022-09-01T21:21:32.645Z,60.67
2022-09-01T21:23:59.275Z,60.93
2022-09-01T21:26:25.689Z,61.32
2022-09-01T21:28:56.109Z,60.85
2022-09-01T21:31:24.154Z,61.14
2022-09-01T21:33:51.539Z,61.02
2022-09-01T21:36:18.281Z,62.51
2022-09-01T21:38:44.763Z,62.45
2022-09-01T21:41:13.271Z,62.89
2022-09-01T21:43:44.261Z,62.40
2022-09-01T21:46:13.525Z,63.15
2022-09-01T21:48:40.226Z,62.68
2022-09-01T21:51:06.958Z,62.84
2022-09-01T21:53:33.451Z,62.20
2022-09-01T21:56:00.116Z,61.09
2022-09-01T21:58:26.718Z,61.70
2022-09-01T22:00:53.334Z,60.95
2022-09-01T22:03:20.406Z,61.29
2022-09-01T22:05:47.150Z,61.14
2022-09-01T22:08:15.202Z,62.22
2022-09-01T22:10:44.731Z,62.29
2022-09-01T22:13:11.339Z,62.57
2022-09-01T22:15:43.326Z,63.36
2022-09-01T22:18:10.335Z,64.11
2022-09-01T22:20:36.870Z,65.70
2022-09-01T22:23:03.635Z,67.21
2022-09-01T22:25:32.518Z,67.44
2022-09-01T22:28:03.518Z,68.32
2022-09-01T22:30:30.451Z,67.78
2022-09-01T22:32:56.962Z,67.06
2022-09-01T22:35:23.592Z,67.87
2022-09-01T22:37:50.290Z,68.65
2022-09-01T22:40:17.164Z,69.84
2022-09-01T22:42:44.170Z,70.76
2022-09-01T22:45:11.492Z,70.54
2022-09-01T22:47:38.542Z,70.19
2022-09-01T22:50:07.369Z,71.51
2022-09-01T22:52:35.563Z,72.02
2022-09-01T22:55:03.296Z,72.02
2022-09-01T22:57:29.927Z,71.17
2022-09-01T22:59:56.653Z,72.53
2022-09-01T23:02:23.436Z,73.15
2022-09-01T23:04:50.382Z,73.28
2022-09-01T23:07:17.320Z,72.55
2022-09-01T23:09:43.973Z,72.91
2022-09-01T23:12:10.611Z,73.60
2022-09-01T23:14:40.318Z,72.85
2022-09-01T23:17:06.763Z,71.91
2022-09-01T23:19:33.393Z,71.30
2022-09-01T23:22:00.053Z,71.56
2022-09-01T23:24:26.573Z,71.84
2022-09-01T23:26:53.486Z,72.58
2022-09-01T23:29:20.066Z,72.38
2022-09-01T23:31:46.765Z,71.99
2022-09-01T23:34:41.180Z,71.45
2022-09-01T23:37:08.063Z,72.50
2022-09-01T23:39:34.489Z,71.78
2022-09-01T23:42:01.145Z,71.67
2022-09-01T23:44:27.597Z,72.55
2022-09-01T23:46:54.237Z,72.36
2022-09-01T23:49:20.764Z,73.45
2022-09-01T23:51:47.493Z,73.07
2022-09-01T23:54:14.946Z,73.51
2022-09-01T23:56:41.413Z,73.27
2022-09-01T23:59:08.069Z,74.48
